sensor_id;sensor_type;location;lat;lon;timestamp;pressure;altitude;pressure_sealevel;temperature;humidity
73566;BME280;61846;52.970;-3.168;2024-02-14T00:01:40;99683.37;;;13.39;54.42
73566;BME280;61846;52.970;-3.168;2024-02-14T00:04:05;99686.98;;;13.19;54.56
73566;BME280;61846;52.970;-3.168;2024-02-14T00:06:35;99687.97;;;13.37;54.21
73566;BME280;61846;52.970;-3.168;2024-02-14T00:08:55;99686.71;;;13.35;53.90
73566;BME280;61846;52.970;-3.168;2024-02-14T00:11:21;99691.57;;;13.07;54.70
73566;BME280;61846;52.970;-3.168;2024-02-14T00:13:46;99688.13;;;13.77;53.37
73566;BME280;61846;52.970;-3.168;2024-02-14T00:16:12;99692.59;;;12.45;56.66
73566;BME280;61846;52.970;-3.168;2024-02-14T00:18:37;99703.04;;;11.35;61.63
73566;BME280;61846;52.970;-3.168;2024-02-14T00:21:03;99706.15;;;10.98;63.60
73566;BME280;61846;52.970;-3.168;2024-02-14T00:23:28;99699.85;;;12.53;58.20
73566;BME280;61846;52.970;-3.168;2024-02-14T00:25:53;99700.12;;;12.51;58.01
73566;BME280;61846;52.970;-3.168;2024-02-14T00:28:19;99702.77;;;13.10;56.26
73566;BME280;61846;52.970;-3.168;2024-02-14T00:30:44;99699.36;;;13.24;55.10
73566;BME280;61846;52.970;-3.168;2024-02-14T00:33:10;99700.47;;;13.45;54.97
73566;BME280;61846;52.970;-3.168;2024-02-14T00:35:35;99697.61;;;13.47;55.20
73566;BME280;61846;52.970;-3.168;2024-02-14T00:38:01;99695.62;;;13.66;54.09
73566;BME280;61846;52.970;-3.168;2024-02-14T00:40:27;99693.68;;;13.40;54.80
73566;BME280;61846;52.970;-3.168;2024-02-14T00:42:52;99695.91;;;13.32;54.37
73566;BME280;61846;52.970;-3.168;2024-02-14T00:45:17;99693.77;;;13.57;54.12
73566;BME280;61846;52.970;-3.168;2024-02-14T00:47:43;99694.46;;;13.40;53.78
73566;BME280;61846;52.970;-3.168;2024-02-14T00:50:09;99691.49;;;13.58;53.17
73566;BME280;61846;52.970;-3.168;2024-02-14T00:52:34;99694.85;;;13.78;53.12
73566;BME280;61846;52.970;-3.168;2024-02-14T00:55:00;99690.51;;;13.61;52.84
73566;BME280;61846;52.970;-3.168;2024-02-14T00:57:25;99694.11;;;13.79;52.72
73566;BME280;61846;52.970;-3.168;2024-02-14T00:59:51;99698.53;;;13.91;52.59
73566;BME280;61846;52.970;-3.168;2024-02-14T01:02:16;99704.57;;;13.64;52.52
73566;BME280;61846;52.970;-3.168;2024-02-14T01:04:42;99700.43;;;13.45;54.51
73566;BME280;61846;52.970;-3.168;2024-02-14T01:07:07;99696.83;;;13.51;53.55
73566;BME280;61846;52.970;-3.168;2024-02-14T01:09:33;99696.79;;;13.36;54.17
73566;BME280;61846;52.970;-3.168;2024-02-14T01:11:59;99697.78;;;13.62;53.98
73566;BME280;61846;52.970;-3.168;2024-02-14T01:14:24;99698.05;;;13.62;53.66
73566;BME280;61846;52.970;-3.168;2024-02-14T01:16:49;99697.96;;;13.59;53.38
73566;BME280;61846;52.970;-3.168;2024-02-14T01:19:15;99699.06;;;13.73;52.90
73566;BME280;61846;52.970;-3.168;2024-02-14T01:21:40;99703.15;;;13.26;54.58
73566;BME280;61846;52.970;-3.168;2024-02-14T01:24:06;99700.21;;;13.56;53.62
73566;BME280;61846;52.970;-3.168;2024-02-14T01:26:31;99696.40;;;13.68;53.51
73566;BME280;61846;52.970;-3.168;2024-02-14T01:28:57;99694.30;;;13.99;53.39
73566;BME280;61846;52.970;-3.168;2024-02-14T01:31:22;99690.66;;;13.50;53.91
73566;BME280;61846;52.970;-3.168;2024-02-14T01:33:48;99682.38;;;13.55;53.90
73566;BME280;61846;52.970;-3.168;2024-02-14T01:36:14;99678.20;;;13.29;54.25
73566;BME280;61846;52.970;-3.168;2024-02-14T01:38:39;99678.30;;;13.82;54.41
73566;BME280;61846;52.970;-3.168;2024-02-14T01:41:05;99685.11;;;13.24;54.68
73566;BME280;61846;52.970;-3.168;2024-02-14T01:43:30;99684.29;;;11.13;62.02
73566;BME280;61846;52.970;-3.168;2024-02-14T01:45:57;99675.78;;;12.19;59.76
73566;BME280;61846;52.970;-3.168;2024-02-14T01:48:21;99673.54;;;10.48;63.62
73566;BME280;61846;52.970;-3.168;2024-02-14T01:50:47;99672.36;;;11.22;62.82
73566;BME280;61846;52.970;-3.168;2024-02-14T01:53:12;99660.55;;;12.36;59.99
73566;BME280;61846;52.970;-3.168;2024-02-14T01:55:38;99667.33;;;12.99;58.31
73566;BME280;61846;52.970;-3.168;2024-02-14T01:58:03;99671.23;;;12.47;57.27
73566;BME280;61846;52.970;-3.168;2024-02-14T02:00:29;99667.93;;;13.43;56.39
73566;BME280;61846;52.970;-3.168;2024-02-14T02:02:55;99665.67;;;13.64;55.95
73566;BME280;61846;52.970;-3.168;2024-02-14T02:05:20;99668.64;;;13.39;55.20
73566;BME280;61846;52.970;-3.168;2024-02-14T02:07:46;99672.29;;;13.83;55.00
73566;BME280;61846;52.970;-3.168;2024-02-14T02:10:11;99670.49;;;13.73;54.67
73566;BME280;61846;52.970;-3.168;2024-02-14T02:12:36;99668.03;;;13.91;54.23
73566;BME280;61846;52.970;-3.168;2024-02-14T02:15:02;99668.00;;;13.62;54.19
73566;BME280;61846;52.970;-3.168;2024-02-14T02:17:27;99669.76;;;13.68;53.97
73566;BME280;61846;52.970;-3.168;2024-02-14T02:19:53;99673.11;;;13.83;53.54
73566;BME280;61846;52.970;-3.168;2024-02-14T02:22:18;99673.80;;;13.75;53.68
73566;BME280;61846;52.970;-3.168;2024-02-14T02:24:43;99674.88;;;13.73;53.64
73566;BME280;61846;52.970;-3.168;2024-02-14T02:27:09;99677.21;;;13.61;53.80
73566;BME280;61846;52.970;-3.168;2024-02-14T02:29:34;99683.48;;;13.33;54.49
73566;BME280;61846;52.970;-3.168;2024-02-14T02:32:00;99683.46;;;13.62;55.37
73566;BME280;61846;52.970;-3.168;2024-02-14T02:34:25;99686.29;;;13.77;54.18
73566;BME280;61846;52.970;-3.168;2024-02-14T02:36:51;99684.95;;;13.33;56.07
73566;BME280;61846;52.970;-3.168;2024-02-14T02:39:17;99682.54;;;12.41;58.53
73566;BME280;61846;52.970;-3.168;2024-02-14T02:41:42;99680.09;;;12.18;58.96
73566;BME280;61846;52.970;-3.168;2024-02-14T02:44:07;99672.60;;;13.13;56.20
73566;BME280;61846;52.970;-3.168;2024-02-14T02:46:32;99667.94;;;13.56;54.16
73566;BME280;61846;52.970;-3.168;2024-02-14T02:48:58;99667.46;;;13.22;54.96
73566;BME280;61846;52.970;-3.168;2024-02-14T02:51:24;99664.00;;;13.68;54.37
73566;BME280;61846;52.970;-3.168;2024-02-14T02:53:49;99660.89;;;13.88;53.76
73566;BME280;61846;52.970;-3.168;2024-02-14T02:56:14;99658.20;;;13.66;53.74
73566;BME280;61846;52.970;-3.168;2024-02-14T02:58:40;99657.48;;;13.83;53.27
73566;BME280;61846;52.970;-3.168;2024-02-14T03:01:08;99654.94;;;14.28;53.31
73566;BME280;61846;52.970;-3.168;2024-02-14T03:03:31;99648.59;;;13.73;53.50
73566;BME280;61846;52.970;-3.168;2024-02-14T03:05:56;99652.81;;;13.80;53.35
73566;BME280;61846;52.970;-3.168;2024-02-14T03:08:21;99653.26;;;13.77;53.63
73566;BME280;61846;52.970;-3.168;2024-02-14T03:10:47;99649.73;;;13.29;54.79
73566;BME280;61846;52.970;-3.168;2024-02-14T03:13:12;99645.86;;;13.48;54.73
73566;BME280;61846;52.970;-3.168;2024-02-14T03:15:38;99644.91;;;13.49;54.24
73566;BME280;61846;52.970;-3.168;2024-02-14T03:18:03;99646.45;;;13.86;53.54
73566;BME280;61846;52.970;-3.168;2024-02-14T03:20:28;99641.37;;;13.73;53.61
73566;BME280;61846;52.970;-3.168;2024-02-14T03:22:54;99646.06;;;13.97;53.18
73566;BME280;61846;52.970;-3.168;2024-02-14T03:25:20;99645.92;;;13.87;53.31
73566;BME280;61846;52.970;-3.168;2024-02-14T03:27:45;99647.53;;;14.14;52.50
73566;BME280;61846;52.970;-3.168;2024-02-14T03:30:11;99644.78;;;14.24;52.08
73566;BME280;61846;52.970;-3.168;2024-02-14T03:32:35;99642.11;;;13.92;52.59
73566;BME280;61846;52.970;-3.168;2024-02-14T03:35:01;99645.25;;;13.84;52.79
73566;BME280;61846;52.970;-3.168;2024-02-14T03:37:27;99642.12;;;13.73;53.03
73566;BME280;61846;52.970;-3.168;2024-02-14T03:39:52;99643.44;;;13.68;53.26
73566;BME280;61846;52.970;-3.168;2024-02-14T03:42:17;99644.92;;;13.87;52.78
73566;BME280;61846;52.970;-3.168;2024-02-14T03:44:43;99641.50;;;13.73;53.11
73566;BME280;61846;52.970;-3.168;2024-02-14T03:47:09;99644.23;;;13.84;52.90
73566;BME280;61846;52.970;-3.168;2024-02-14T03:49:34;99644.85;;;14.24;51.99
73566;BME280;61846;52.970;-3.168;2024-02-14T03:52:00;99644.08;;;14.33;52.45
73566;BME280;61846;52.970;-3.168;2024-02-14T03:54:25;99649.70;;;13.76;53.20
73566;BME280;61846;52.970;-3.168;2024-02-14T03:56:51;99656.28;;;13.41;55.04
73566;BME280;61846;52.970;-3.168;2024-02-14T03:59:16;99662.84;;;13.30;55.59
73566;BME280;61846;52.970;-3.168;2024-02-14T04:01:44;99662.83;;;13.34;55.55
73566;BME280;61846;52.970;-3.168;2024-02-14T04:04:07;99660.83;;;13.50;55.43
73566;BME280;61846;52.970;-3.168;2024-02-14T04:06:32;99658.99;;;13.42;55.18
73566;BME280;61846;52.970;-3.168;2024-02-14T04:08:58;99659.33;;;13.94;54.11
73566;BME280;61846;52.970;-3.168;2024-02-14T04:11:23;99657.65;;;13.75;54.32
73566;BME280;61846;52.970;-3.168;2024-02-14T04:13:49;99658.21;;;13.87;53.82
73566;BME280;61846;52.970;-3.168;2024-02-14T04:16:14;99655.75;;;14.01;53.96
73566;BME280;61846;52.970;-3.168;2024-02-14T04:18:40;99656.69;;;13.87;53.59
73566;BME280;61846;52.970;-3.168;2024-02-14T04:21:07;99657.74;;;13.72;53.44
73566;BME280;61846;52.970;-3.168;2024-02-14T04:23:31;99653.71;;;13.18;55.04
73566;BME280;61846;52.970;-3.168;2024-02-14T04:25:57;99655.02;;;13.76;54.37
73566;BME280;61846;52.970;-3.168;2024-02-14T04:28:22;99656.42;;;13.90;53.97
73566;BME280;61846;52.970;-3.168;2024-02-14T04:30:48;99654.22;;;14.06;53.47
73566;BME280;61846;52.970;-3.168;2024-02-14T04:33:13;99655.95;;;14.23;53.24
73566;BME280;61846;52.970;-3.168;2024-02-14T04:35:38;99652.91;;;13.91;53.50
73566;BME280;61846;52.970;-3.168;2024-02-14T04:38:04;99651.89;;;13.52;54.58
73566;BME280;61846;52.970;-3.168;2024-02-14T04:40:29;99654.88;;;13.70;54.09
73566;BME280;61846;52.970;-3.168;2024-02-14T04:42:55;99663.61;;;13.40;55.50
73566;BME280;61846;52.970;-3.168;2024-02-14T04:45:20;99653.50;;;13.80;54.90
73566;BME280;61846;52.970;-3.168;2024-02-14T04:47:46;99655.40;;;13.86;54.82
73566;BME280;61846;52.970;-3.168;2024-02-14T04:50:11;99663.03;;;13.88;54.11
73566;BME280;61846;52.970;-3.168;2024-02-14T04:52:37;99663.36;;;13.78;54.45
73566;BME280;61846;52.970;-3.168;2024-02-14T04:55:04;99665.27;;;14.01;54.77
73566;BME280;61846;52.970;-3.168;2024-02-14T04:57:28;99666.80;;;13.70;54.85
73566;BME280;61846;52.970;-3.168;2024-02-14T04:59:53;99665.74;;;13.34;56.35
73566;BME280;61846;52.970;-3.168;2024-02-14T05:02:19;99662.21;;;13.69;56.18
73566;BME280;61846;52.970;-3.168;2024-02-14T05:04:44;99667.69;;;13.45;56.70
73566;BME280;61846;52.970;-3.168;2024-02-14T05:07:10;99669.95;;;12.97;57.97
73566;BME280;61846;52.970;-3.168;2024-02-14T05:09:36;99665.20;;;13.17;57.69
73566;BME280;61846;52.970;-3.168;2024-02-14T05:12:01;99672.38;;;13.17;58.57
73566;BME280;61846;52.970;-3.168;2024-02-14T05:14:27;99677.57;;;12.68;61.19
73566;BME280;61846;52.970;-3.168;2024-02-14T05:16:52;99675.88;;;12.77;60.48
73566;BME280;61846;52.970;-3.168;2024-02-14T05:19:18;99680.36;;;13.28;59.99
73566;BME280;61846;52.970;-3.168;2024-02-14T05:21:43;99678.72;;;13.31;59.58
73566;BME280;61846;52.970;-3.168;2024-02-14T05:24:09;99675.90;;;13.32;58.48
73566;BME280;61846;52.970;-3.168;2024-02-14T05:26:34;99673.77;;;13.45;57.75
73566;BME280;61846;52.970;-3.168;2024-02-14T05:29:00;99677.17;;;12.20;60.51
73566;BME280;61846;52.970;-3.168;2024-02-14T05:33:51;99686.30;;;10.77;68.85
73566;BME280;61846;52.970;-3.168;2024-02-14T05:36:16;99681.18;;;12.34;63.53
73566;BME280;61846;52.970;-3.168;2024-02-14T05:38:42;99677.55;;;13.14;60.34
73566;BME280;61846;52.970;-3.168;2024-02-14T05:41:07;99684.45;;;11.37;63.25
73566;BME280;61846;52.970;-3.168;2024-02-14T05:43:33;99687.61;;;10.99;66.35
73566;BME280;61846;52.970;-3.168;2024-02-14T05:45:58;99693.16;;;9.34;73.03
73566;BME280;61846;52.970;-3.168;2024-02-14T05:48:24;99695.50;;;11.14;69.97
73566;BME280;61846;52.970;-3.168;2024-02-14T05:50:49;99692.06;;;11.94;67.54
73566;BME280;61846;52.970;-3.168;2024-02-14T05:53:15;99685.89;;;12.92;63.24
73566;BME280;61846;52.970;-3.168;2024-02-14T05:55:41;99683.98;;;13.36;61.14
73566;BME280;61846;52.970;-3.168;2024-02-14T05:58:06;99685.88;;;13.75;59.60
73566;BME280;61846;52.970;-3.168;2024-02-14T06:00:32;99682.86;;;13.96;59.68
73566;BME280;61846;52.970;-3.168;2024-02-14T06:02:57;99681.11;;;13.69;59.12
73566;BME280;61846;52.970;-3.168;2024-02-14T06:05:23;99683.49;;;14.07;58.54
73566;BME280;61846;52.970;-3.168;2024-02-14T06:07:49;99692.45;;;14.17;57.54
73566;BME280;61846;52.970;-3.168;2024-02-14T06:10:14;99697.37;;;14.12;57.33
73566;BME280;61846;52.970;-3.168;2024-02-14T06:12:39;99696.36;;;14.25;56.78
73566;BME280;61846;52.970;-3.168;2024-02-14T06:15:06;99704.85;;;12.59;60.12
73566;BME280;61846;52.970;-3.168;2024-02-14T06:17:30;99705.38;;;13.76;58.02
73566;BME280;61846;52.970;-3.168;2024-02-14T06:19:56;99704.46;;;14.03;57.19
73566;BME280;61846;52.970;-3.168;2024-02-14T06:22:21;99702.99;;;14.09;56.61
73566;BME280;61846;52.970;-3.168;2024-02-14T06:24:47;99693.66;;;14.49;56.07
73566;BME280;61846;52.970;-3.168;2024-02-14T06:27:12;99687.78;;;14.21;56.45
73566;BME280;61846;52.970;-3.168;2024-02-14T06:29:38;99683.07;;;14.13;57.14
73566;BME280;61846;52.970;-3.168;2024-02-14T06:32:04;99688.57;;;14.53;56.30
73566;BME280;61846;52.970;-3.168;2024-02-14T06:34:29;99687.84;;;13.45;58.29
73566;BME280;61846;52.970;-3.168;2024-02-14T06:36:54;99687.19;;;14.15;57.53
73566;BME280;61846;52.970;-3.168;2024-02-14T06:39:20;99693.56;;;14.34;56.90
73566;BME280;61846;52.970;-3.168;2024-02-14T06:41:45;99694.48;;;13.88;57.42
73566;BME280;61846;52.970;-3.168;2024-02-14T06:44:11;99699.93;;;13.51;58.68
73566;BME280;61846;52.970;-3.168;2024-02-14T06:46:36;99698.04;;;14.09;57.31
73566;BME280;61846;52.970;-3.168;2024-02-14T06:49:02;99694.71;;;13.93;56.40
73566;BME280;61846;52.970;-3.168;2024-02-14T06:51:27;99692.45;;;14.90;54.92
73566;BME280;61846;52.970;-3.168;2024-02-14T06:53:53;99688.07;;;14.23;56.36
73566;BME280;61846;52.970;-3.168;2024-02-14T06:56:18;99695.26;;;13.74;57.78
73566;BME280;61846;52.970;-3.168;2024-02-14T06:58:44;99701.64;;;14.46;56.20
73566;BME280;61846;52.970;-3.168;2024-02-14T07:01:09;99706.50;;;14.47;56.23
73566;BME280;61846;52.970;-3.168;2024-02-14T07:03:35;99703.28;;;14.39;56.08
73566;BME280;61846;52.970;-3.168;2024-02-14T07:06:01;99704.58;;;14.88;54.79
73566;BME280;61846;52.970;-3.168;2024-02-14T07:08:26;99707.69;;;14.78;55.16
73566;BME280;61846;52.970;-3.168;2024-02-14T07:10:52;99704.19;;;14.52;54.99
73566;BME280;61846;52.970;-3.168;2024-02-14T07:13:17;99706.82;;;14.53;55.52
73566;BME280;61846;52.970;-3.168;2024-02-14T07:15:43;99706.01;;;14.43;55.14
73566;BME280;61846;52.970;-3.168;2024-02-14T07:18:09;99698.62;;;14.23;55.53
73566;BME280;61846;52.970;-3.168;2024-02-14T07:20:34;99706.68;;;14.61;55.25
73566;BME280;61846;52.970;-3.168;2024-02-14T07:22:59;99703.20;;;14.50;55.47
73566;BME280;61846;52.970;-3.168;2024-02-14T07:25:25;99707.18;;;14.58;55.45
73566;BME280;61846;52.970;-3.168;2024-02-14T07:27:50;99708.46;;;12.36;61.99
73566;BME280;61846;52.970;-3.168;2024-02-14T07:30:16;99701.19;;;13.88;58.59
73566;BME280;61846;52.970;-3.168;2024-02-14T07:32:41;99700.48;;;12.75;60.52
73566;BME280;61846;52.970;-3.168;2024-02-14T07:35:07;99698.51;;;13.44;59.02
73566;BME280;61846;52.970;-3.168;2024-02-14T07:37:32;99698.35;;;13.91;58.08
73566;BME280;61846;52.970;-3.168;2024-02-14T07:39:58;99699.96;;;14.24;57.17
73566;BME280;61846;52.970;-3.168;2024-02-14T07:42:23;99701.08;;;14.18;56.31
73566;BME280;61846;52.970;-3.168;2024-02-14T07:44:49;99702.46;;;14.30;56.34
73566;BME280;61846;52.970;-3.168;2024-02-14T07:47:14;99700.93;;;14.38;56.12
73566;BME280;61846;52.970;-3.168;2024-02-14T07:49:40;99701.71;;;14.28;56.30
73566;BME280;61846;52.970;-3.168;2024-02-14T07:52:06;99705.23;;;14.13;56.94
73566;BME280;61846;52.970;-3.168;2024-02-14T07:54:31;99719.22;;;13.78;57.80
73566;BME280;61846;52.970;-3.168;2024-02-14T07:56:56;99717.36;;;14.05;57.39
73566;BME280;61846;52.970;-3.168;2024-02-14T07:59:22;99714.67;;;14.15;57.04
73566;BME280;61846;52.970;-3.168;2024-02-14T08:01:47;99711.42;;;14.37;56.56
73566;BME280;61846;52.970;-3.168;2024-02-14T08:04:13;99707.72;;;13.80;57.42
73566;BME280;61846;52.970;-3.168;2024-02-14T08:06:38;99710.19;;;14.07;57.71
73566;BME280;61846;52.970;-3.168;2024-02-14T08:09:03;99711.39;;;13.49;58.83
73566;BME280;61846;52.970;-3.168;2024-02-14T08:11:29;99714.21;;;13.58;59.81
73566;BME280;61846;52.970;-3.168;2024-02-14T08:13:55;99719.82;;;13.83;58.98
73566;BME280;61846;52.970;-3.168;2024-02-14T08:16:20;99719.29;;;13.96;58.44
73566;BME280;61846;52.970;-3.168;2024-02-14T08:18:45;99720.79;;;13.59;59.09
73566;BME280;61846;52.970;-3.168;2024-02-14T08:21:11;99722.29;;;14.38;57.66
73566;BME280;61846;52.970;-3.168;2024-02-14T08:23:36;99719.91;;;14.60;58.09
73566;BME280;61846;52.970;-3.168;2024-02-14T08:26:02;99720.89;;;14.47;57.83
73566;BME280;61846;52.970;-3.168;2024-02-14T08:28:27;99725.24;;;14.56;57.19
73566;BME280;61846;52.970;-3.168;2024-02-14T08:30:53;99723.24;;;14.74;56.84
73566;BME280;61846;52.970;-3.168;2024-02-14T08:33:18;99721.66;;;12.47;62.69
73566;BME280;61846;52.970;-3.168;2024-02-14T08:35:44;99717.13;;;12.46;65.07
73566;BME280;61846;52.970;-3.168;2024-02-14T08:38:09;99730.61;;;10.72;71.15
73566;BME280;61846;52.970;-3.168;2024-02-14T08:40:35;99738.41;;;12.85;66.32
73566;BME280;61846;52.970;-3.168;2024-02-14T08:43:01;99735.54;;;13.46;64.25
73566;BME280;61846;52.970;-3.168;2024-02-14T08:45:26;99728.63;;;14.02;62.41
73566;BME280;61846;52.970;-3.168;2024-02-14T08:47:51;99726.24;;;13.98;61.97
73566;BME280;61846;52.970;-3.168;2024-02-14T08:50:17;99734.29;;;14.42;61.35
73566;BME280;61846;52.970;-3.168;2024-02-14T08:52:42;99746.47;;;11.91;67.12
73566;BME280;61846;52.970;-3.168;2024-02-14T08:55:08;99741.32;;;13.97;62.50
73566;BME280;61846;52.970;-3.168;2024-02-14T08:57:33;99746.34;;;12.56;65.89
73566;BME280;61846;52.970;-3.168;2024-02-14T08:59:59;99743.47;;;12.62;66.39
73566;BME280;61846;52.970;-3.168;2024-02-14T09:02:24;99733.80;;;13.05;65.73
73566;BME280;61846;52.970;-3.168;2024-02-14T09:04:50;99733.50;;;14.20;63.28
73566;BME280;61846;52.970;-3.168;2024-02-14T09:07:15;99735.90;;;12.83;66.05
73566;BME280;61846;52.970;-3.168;2024-02-14T09:09:41;99728.47;;;13.24;65.58
73566;BME280;61846;52.970;-3.168;2024-02-14T09:12:07;99728.23;;;13.68;64.11
73566;BME280;61846;52.970;-3.168;2024-02-14T09:14:32;99736.26;;;12.66;68.16
73566;BME280;61846;52.970;-3.168;2024-02-14T09:16:57;99733.08;;;12.88;66.44
73566;BME280;61846;52.970;-3.168;2024-02-14T09:19:23;99739.63;;;12.30;67.33
73566;BME280;61846;52.970;-3.168;2024-02-14T09:21:48;99744.62;;;11.38;71.34
73566;BME280;61846;52.970;-3.168;2024-02-14T09:24:14;99746.42;;;13.44;65.92
73566;BME280;61846;52.970;-3.168;2024-02-14T09:26:39;99745.43;;;12.24;67.84
73566;BME280;61846;52.970;-3.168;2024-02-14T09:29:04;99738.68;;;14.28;62.82
73566;BME280;61846;52.970;-3.168;2024-02-14T09:31:30;99738.67;;;13.84;64.25
73566;BME280;61846;52.970;-3.168;2024-02-14T09:33:55;99740.76;;;14.78;61.11
73566;BME280;61846;52.970;-3.168;2024-02-14T09:36:21;99741.20;;;15.71;59.56
73566;BME280;61846;52.970;-3.168;2024-02-14T09:38:47;99743.39;;;15.62;59.16
73566;BME280;61846;52.970;-3.168;2024-02-14T09:41:15;99747.41;;;15.98;58.88
73566;BME280;61846;52.970;-3.168;2024-02-14T09:43:39;99748.97;;;16.04;58.28
73566;BME280;61846;52.970;-3.168;2024-02-14T09:46:03;99746.95;;;15.74;57.82
73566;BME280;61846;52.970;-3.168;2024-02-14T09:48:29;99747.69;;;16.23;57.85
73566;BME280;61846;52.970;-3.168;2024-02-14T09:50:54;99751.43;;;15.73;57.70
73566;BME280;61846;52.970;-3.168;2024-02-14T09:53:19;99755.11;;;16.05;57.97
73566;BME280;61846;52.970;-3.168;2024-02-14T09:55:46;99755.94;;;14.83;59.39
73566;BME280;61846;52.970;-3.168;2024-02-14T09:58:09;99746.64;;;14.06;62.29
73566;BME280;61846;52.970;-3.168;2024-02-14T10:00:35;99739.10;;;13.98;62.01
73566;BME280;61846;52.970;-3.168;2024-02-14T10:03:01;99744.07;;;14.21;62.59
73566;BME280;61846;52.970;-3.168;2024-02-14T10:05:26;99749.18;;;14.11;62.93
73566;BME280;61846;52.970;-3.168;2024-02-14T10:07:51;99744.21;;;14.98;61.29
73566;BME280;61846;52.970;-3.168;2024-02-14T10:10:17;99740.94;;;15.83;59.28
73566;BME280;61846;52.970;-3.168;2024-02-14T10:12:42;99737.92;;;15.65;59.48
73566;BME280;61846;52.970;-3.168;2024-02-14T10:15:08;99735.34;;;15.63;59.68
73566;BME280;61846;52.970;-3.168;2024-02-14T10:17:33;99738.24;;;16.17;58.56
73566;BME280;61846;52.970;-3.168;2024-02-14T10:19:59;99739.96;;;15.79;59.15
73566;BME280;61846;52.970;-3.168;2024-02-14T10:22:24;99750.73;;;16.16;58.94
73566;BME280;61846;52.970;-3.168;2024-02-14T10:24:49;99748.45;;;16.51;57.96
73566;BME280;61846;52.970;-3.168;2024-02-14T10:27:15;99750.27;;;16.26;57.45
73566;BME280;61846;52.970;-3.168;2024-02-14T10:29:40;99748.43;;;16.42;57.15
73566;BME280;61846;52.970;-3.168;2024-02-14T10:32:05;99754.11;;;16.29;57.59
73566;BME280;61846;52.970;-3.168;2024-02-14T10:34:32;99761.39;;;15.62;58.92
73566;BME280;61846;52.970;-3.168;2024-02-14T10:36:57;99764.45;;;16.15;58.53
73566;BME280;61846;52.970;-3.168;2024-02-14T10:39:22;99763.73;;;16.29;58.06
73566;BME280;61846;52.970;-3.168;2024-02-14T10:41:47;99762.28;;;16.84;56.88
73566;BME280;61846;52.970;-3.168;2024-02-14T10:44:13;99765.46;;;16.67;56.77
73566;BME280;61846;52.970;-3.168;2024-02-14T10:46:40;99763.89;;;17.01;56.74
73566;BME280;61846;52.970;-3.168;2024-02-14T10:49:05;99765.40;;;17.13;55.75
73566;BME280;61846;52.970;-3.168;2024-02-14T10:51:31;99771.66;;;17.03;56.03
73566;BME280;61846;52.970;-3.168;2024-02-14T10:53:55;99773.37;;;16.87;56.46
73566;BME280;61846;52.970;-3.168;2024-02-14T10:56:20;99773.22;;;16.74;56.83
73566;BME280;61846;52.970;-3.168;2024-02-14T10:58:46;99775.15;;;17.17;55.81
73566;BME280;61846;52.970;-3.168;2024-02-14T11:01:13;99776.12;;;17.29;55.32
73566;BME280;61846;52.970;-3.168;2024-02-14T11:03:36;99784.84;;;17.06;55.85
73566;BME280;61846;52.970;-3.168;2024-02-14T11:06:02;99786.74;;;17.10;56.14
73566;BME280;61846;52.970;-3.168;2024-02-14T11:08:29;99781.74;;;16.64;57.66
73566;BME280;61846;52.970;-3.168;2024-02-14T11:10:54;99777.69;;;16.67;57.42
73566;BME280;61846;52.970;-3.168;2024-02-14T11:13:18;99777.25;;;16.68;57.47
73566;BME280;61846;52.970;-3.168;2024-02-14T11:15:45;99782.48;;;16.25;58.40
73566;BME280;61846;52.970;-3.168;2024-02-14T11:18:09;99787.93;;;16.43;57.83
73566;BME280;61846;52.970;-3.168;2024-02-14T11:20:35;99791.71;;;15.58;60.54
73566;BME280;61846;52.970;-3.168;2024-02-14T11:23:02;99796.23;;;16.16;58.82
73566;BME280;61846;52.970;-3.168;2024-02-14T11:25:30;99798.56;;;16.32;59.23
73566;BME280;61846;52.970;-3.168;2024-02-14T11:27:50;99802.51;;;16.24;58.76
73566;BME280;61846;52.970;-3.168;2024-02-14T11:30:29;99811.99;;;16.42;58.66
73566;BME280;61846;52.970;-3.168;2024-02-14T11:32:43;99815.16;;;16.03;59.54
73566;BME280;61846;52.970;-3.168;2024-02-14T11:35:11;99818.85;;;15.90;59.64
73566;BME280;61846;52.970;-3.168;2024-02-14T11:37:32;99823.19;;;14.76;62.23
73566;BME280;61846;52.970;-3.168;2024-02-14T11:39:58;99827.29;;;14.04;64.58
73566;BME280;61846;52.970;-3.168;2024-02-14T11:42:23;99833.80;;;13.94;65.14
73566;BME280;61846;52.970;-3.168;2024-02-14T11:44:48;99840.93;;;14.20;64.66
73566;BME280;61846;52.970;-3.168;2024-02-14T11:47:14;99832.76;;;14.46;64.42
73566;BME280;61846;52.970;-3.168;2024-02-14T11:49:39;99839.46;;;14.04;64.28
73566;BME280;61846;52.970;-3.168;2024-02-14T11:52:05;99838.35;;;14.47;64.74
73566;BME280;61846;52.970;-3.168;2024-02-14T11:54:30;99835.75;;;14.87;62.34
73566;BME280;61846;52.970;-3.168;2024-02-14T11:56:56;99844.88;;;13.89;64.33
73566;BME280;61846;52.970;-3.168;2024-02-14T11:59:21;99840.80;;;13.85;65.15
73566;BME280;61846;52.970;-3.168;2024-02-14T12:01:47;99842.00;;;13.51;65.73
73566;BME280;61846;52.970;-3.168;2024-02-14T12:04:12;99844.02;;;13.99;64.42
73566;BME280;61846;52.970;-3.168;2024-02-14T12:06:40;99846.98;;;13.53;66.49
73566;BME280;61846;52.970;-3.168;2024-02-14T12:09:03;99842.74;;;13.02;66.99
73566;BME280;61846;52.970;-3.168;2024-02-14T12:11:28;99841.39;;;13.34;66.68
73566;BME280;61846;52.970;-3.168;2024-02-14T12:13:53;99836.31;;;13.99;64.77
73566;BME280;61846;52.970;-3.168;2024-02-14T12:16:20;99830.19;;;14.74;62.68
73566;BME280;61846;52.970;-3.168;2024-02-14T12:18:44;99838.67;;;14.74;62.57
73566;BME280;61846;52.970;-3.168;2024-02-14T12:21:10;99836.85;;;14.61;62.87
73566;BME280;61846;52.970;-3.168;2024-02-14T12:23:35;99839.84;;;14.97;61.63
73566;BME280;61846;52.970;-3.168;2024-02-14T12:26:02;99844.01;;;15.00;62.21
73566;BME280;61846;52.970;-3.168;2024-02-14T12:28:28;99837.80;;;14.91;61.74
73566;BME280;61846;52.970;-3.168;2024-02-14T12:30:52;99842.57;;;15.10;61.14
73566;BME280;61846;52.970;-3.168;2024-02-14T12:33:17;99842.03;;;15.06;61.17
73566;BME280;61846;52.970;-3.168;2024-02-14T12:35:44;99849.59;;;14.82;60.98
73566;BME280;61846;52.970;-3.168;2024-02-14T12:38:08;99849.67;;;14.75;61.81
73566;BME280;61846;52.970;-3.168;2024-02-14T12:40:35;99856.13;;;14.20;62.79
73566;BME280;61846;52.970;-3.168;2024-02-14T12:42:59;99849.16;;;14.65;61.69